Terminal Aerodrome Forecast
Issued by NWS Cleveland, OH

Home | Current Version | Previous Version | Text Only | Print | Product List | Glossary On
Versions: 1 2 3 4 5 6 7 8 9 10 11 12 13 14 15 16 17 18 19 20 21 22 23 24 25 26 27 28 29 30 31 32 33
944
FTUS41 KCLE 231401 AAC
TAFCLE
TAF AMD
KCLE 231401Z 2314/2418 15010KT 6SM BR VCSH SCT008 BKN060
      TEMPO 2314/2317 3SM -SHRA BR BKN008
     FM231700 20012KT P6SM OVC010
     FM232000 22012KT P6SM OVC007
     FM240900 36005KT P6SM OVC007=

USA.gov is the U.S. government's official web portal to all federal, state and local government web resources and services.